Nyk Romulus — 9V7644 — position and weather

sailwx.info

Track history (hours):
 
Tides and Currents Weather Stations Pressure Air Temp Water Temp Dewpoint Dewpoint Depression Visibility Wind Speed Wind Dir Waves Ship Positions

Nyk Romulus

Last reported at 2018-Nov-07 23:17 UTC. Time now 2018-Nov-18 03:34 UTC.
Position N 09°26' W 079°56'.
Warning: this ship's position is 10 days out of date.

Length 294 m; draft 10.7 m.

Type: Cargo ship. MMSI: 563079000.

Date/timePositionNaut miles runAvg speedWind from/ knotsBaromVisibWave heightAir tempDewpointWater temp
2018-Nov-07 23:17N 09°26' W 079°56'0 0.0
2018-Nov-07 23:02N 09°26' W 079°56'0 0.0
2018-Nov-07 22:32N 09°26' W 079°56'0 0.0
2018-Nov-07 22:02N 09°26' W 079°56'0 0.3
2018-Nov-07 21:32N 09°26' W 079°56'0 0.2
2018-Nov-07 21:02N 09°26' W 079°56'2 4.7
2018-Nov-07 20:32N 09°28' W 079°55'1013.4
2018-Nov-07 19:46N 09°38' W 079°52'  
2018-Nov-03 03:18N 31°47' W 080°22'417.6
2018-Nov-03 03:03N 31°49' W 080°26'316.6
2018-Nov-03 02:52N 31°50' W 080°29'710.2
2018-Nov-03 02:11N 31°55' W 080°35'2 9.8
2018-Nov-03 02:00N 31°56' W 080°37'5 9.8
2018-Nov-03 01:30N 31°58' W 080°42'613.5
2018-Nov-03 01:03N 32°01' W 080°48'116.5
2018-Nov-03 01:00N 32°02' W 080°49'713.4
2018-Nov-03 00:31N 32°03' W 080°56'510.9
2018-Nov-03 00:03N 32°05' W 081°02'110.1
2018-Nov-03 00:00N 32°05' W 081°02'4 7.4
2018-Nov-02 23:30N 32°06' W 081°07'2 5.4
2018-Nov-02 23:03N 32°08' W 081°08'0 0.4
2018-Nov-02 23:00N 32°08' W 081°08'0 0.2
2018-Nov-02 22:28N 32°08' W 081°08'0 0.0
2018-Nov-02 22:01N 32°08' W 081°08'0 0.0
2018-Nov-02 21:58N 32°08' W 081°08'0 0.0
2018-Nov-02 21:28N 32°08' W 081°08'0 0.0
2018-Nov-02 21:01N 32°08' W 081°08'0 0.0
2018-Nov-02 20:58N 32°08' W 081°08'0 0.0
2018-Nov-02 20:28N 32°08' W 081°08'0 0.0
2018-Nov-02 20:01N 32°08' W 081°08'0 0.0
2018-Nov-02 19:58N 32°08' W 081°08'0 0.0
2018-Nov-02 19:28N 32°08' W 081°08'0 0.0
2018-Nov-02 19:01N 32°08' W 081°08'0 0.0
2018-Nov-02 18:58N 32°08' W 081°08'0 0.0
2018-Nov-02 18:28N 32°08' W 081°08'0 0.0
2018-Nov-02 18:01N 32°08' W 081°08'0 0.1
2018-Nov-02 17:58N 32°08' W 081°08'0 0.0
2018-Nov-02 17:28N 32°08' W 081°08'0 0.0
2018-Nov-02 17:01N 32°08' W 081°08'0 0.1
2018-Nov-02 16:58N 32°08' W 081°08'0 0.0
2018-Nov-02 16:28N 32°08' W 081°08'0 0.0
2018-Nov-02 16:01N 32°08' W 081°08'0 0.0
2018-Nov-02 15:58N 32°08' W 081°08'0 0.0
2018-Nov-02 15:28N 32°08' W 081°08'0 0.1
2018-Nov-02 15:01N 32°08' W 081°08'0 0.0
2018-Nov-02 14:58N 32°08' W 081°08'0 0.0
2018-Nov-02 14:28N 32°08' W 081°08'0 0.0
2018-Nov-02 13:58N 32°08' W 081°08'0 0.0
2018-Nov-02 13:28N 32°08' W 081°08'0 0.0
2018-Nov-02 12:59N 32°08' W 081°08'0 0.0
2018-Nov-02 12:30N 32°08' W 081°08'0 0.0
2018-Nov-02 12:03N 32°08' W 081°08'0 0.1
2018-Nov-02 12:00N 32°08' W 081°08'0 0.0
2018-Nov-02 11:30N 32°08' W 081°08'0 0.3
2018-Nov-02 11:04N 32°08' W 081°08'0 0.2
2018-Nov-02 11:00N 32°08' W 081°08'2 3.1
2018-Nov-02 10:30N 32°07' W 081°07'2 5.1
2018-Nov-02 10:03N 32°05' W 081°05'0 6.5
2018-Nov-02 10:01N 32°05' W 081°05'3 5.2
2018-Nov-02 09:30N 32°05' W 081°02'3 6.8
2018-Nov-02 09:03N 32°04' W 080°58'0 8.2
2018-Nov-02 09:00N 32°04' W 080°58'4 9.0
2018-Nov-02 08:30N 32°02' W 080°53'612.5
2018-Nov-02 08:03N 31°60' W 080°47'113.9
2018-Nov-02 08:00N 31°60' W 080°47'611.4
2018-Nov-02 07:30N 31°57' W 080°41'4 9.6
2018-Nov-02 07:04N 31°56' W 080°36'0 9.7
2018-Nov-02 07:01N 31°56' W 080°35'5 9.5
2018-Nov-02 06:30N 31°56' W 080°30'4 9.5
2018-Nov-02 06:03N 31°56' W 080°25'0 9.3
2018-Nov-02 06:00N 31°56' W 080°24'510.1
2018-Nov-02 05:29N 31°56' W 080°18'511.8
2018-Nov-02 05:03N 31°56' W 080°12'111.4
2018-Nov-02 04:59N 31°55' W 080°11'711.1
2018-Nov-02 04:20N 31°52' W 080°04'310.7
2018-Nov-02 04:02N 31°50' W 080°01'110.7
2018-Nov-02 03:58N 31°49' W 079°60'510.8
2018-Nov-02 03:30N 31°47' W 079°55'  
Track history (hours):
 
Tides and Currents Weather Stations Pressure Air Temp Water Temp Dewpoint Dewpoint Depression Visibility Wind Speed Wind Dir Waves Ship Positions

Nyk Romulus

Last reported at 2018-Nov-07 23:17 UTC. Time now 2018-Nov-18 03:34 UTC.
Position N 09°26' W 079°56'.
Warning: this ship's position is 10 days out of date.

Length 294 m; draft 10.7 m.

Type: Cargo ship. MMSI: 563079000.

Date/timePositionNaut miles runAvg speedWind from/ knotsBaromVisibWave heightAir tempDewpointWater temp
2018-Nov-07 23:17N 09°26' W 079°56'0 0.0
2018-Nov-07 23:02N 09°26' W 079°56'0 0.0
2018-Nov-07 22:32N 09°26' W 079°56'0 0.0
2018-Nov-07 22:02N 09°26' W 079°56'0 0.3
2018-Nov-07 21:32N 09°26' W 079°56'0 0.2
2018-Nov-07 21:02N 09°26' W 079°56'2 4.7
2018-Nov-07 20:32N 09°28' W 079°55'1013.4
2018-Nov-07 19:46N 09°38' W 079°52'  
2018-Nov-03 03:18N 31°47' W 080°22'417.6
2018-Nov-03 03:03N 31°49' W 080°26'316.6
2018-Nov-03 02:52N 31°50' W 080°29'710.2
2018-Nov-03 02:11N 31°55' W 080°35'2 9.8
2018-Nov-03 02:00N 31°56' W 080°37'5 9.8
2018-Nov-03 01:30N 31°58' W 080°42'613.5
2018-Nov-03 01:03N 32°01' W 080°48'116.5
2018-Nov-03 01:00N 32°02' W 080°49'713.4
2018-Nov-03 00:31N 32°03' W 080°56'510.9
2018-Nov-03 00:03N 32°05' W 081°02'110.1
2018-Nov-03 00:00N 32°05' W 081°02'4 7.4
2018-Nov-02 23:30N 32°06' W 081°07'2 5.4
2018-Nov-02 23:03N 32°08' W 081°08'0 0.4
2018-Nov-02 23:00N 32°08' W 081°08'0 0.2
2018-Nov-02 22:28N 32°08' W 081°08'0 0.0
2018-Nov-02 22:01N 32°08' W 081°08'0 0.0
2018-Nov-02 21:58N 32°08' W 081°08'0 0.0
2018-Nov-02 21:28N 32°08' W 081°08'0 0.0
2018-Nov-02 21:01N 32°08' W 081°08'0 0.0
2018-Nov-02 20:58N 32°08' W 081°08'0 0.0
2018-Nov-02 20:28N 32°08' W 081°08'0 0.0
2018-Nov-02 20:01N 32°08' W 081°08'0 0.0
2018-Nov-02 19:58N 32°08' W 081°08'0 0.0
2018-Nov-02 19:28N 32°08' W 081°08'0 0.0
2018-Nov-02 19:01N 32°08' W 081°08'0 0.0
2018-Nov-02 18:58N 32°08' W 081°08'0 0.0
2018-Nov-02 18:28N 32°08' W 081°08'0 0.0
2018-Nov-02 18:01N 32°08' W 081°08'0 0.1
2018-Nov-02 17:58N 32°08' W 081°08'0 0.0
2018-Nov-02 17:28N 32°08' W 081°08'0 0.0
2018-Nov-02 17:01N 32°08' W 081°08'0 0.1
2018-Nov-02 16:58N 32°08' W 081°08'0 0.0
2018-Nov-02 16:28N 32°08' W 081°08'0 0.0
2018-Nov-02 16:01N 32°08' W 081°08'0 0.0
2018-Nov-02 15:58N 32°08' W 081°08'0 0.0
2018-Nov-02 15:28N 32°08' W 081°08'0 0.1
2018-Nov-02 15:01N 32°08' W 081°08'0 0.0
2018-Nov-02 14:58N 32°08' W 081°08'0 0.0
2018-Nov-02 14:28N 32°08' W 081°08'0 0.0
2018-Nov-02 13:58N 32°08' W 081°08'0 0.0
2018-Nov-02 13:28N 32°08' W 081°08'0 0.0
2018-Nov-02 12:59N 32°08' W 081°08'0 0.0
2018-Nov-02 12:30N 32°08' W 081°08'0 0.0
2018-Nov-02 12:03N 32°08' W 081°08'0 0.1
2018-Nov-02 12:00N 32°08' W 081°08'0 0.0
2018-Nov-02 11:30N 32°08' W 081°08'0 0.3
2018-Nov-02 11:04N 32°08' W 081°08'0 0.2
2018-Nov-02 11:00N 32°08' W 081°08'2 3.1
2018-Nov-02 10:30N 32°07' W 081°07'2 5.1
2018-Nov-02 10:03N 32°05' W 081°05'0 6.5
2018-Nov-02 10:01N 32°05' W 081°05'3 5.2
2018-Nov-02 09:30N 32°05' W 081°02'3 6.8
2018-Nov-02 09:03N 32°04' W 080°58'0 8.2
2018-Nov-02 09:00N 32°04' W 080°58'4 9.0
2018-Nov-02 08:30N 32°02' W 080°53'612.5
2018-Nov-02 08:03N 31°60' W 080°47'113.9
2018-Nov-02 08:00N 31°60' W 080°47'611.4
2018-Nov-02 07:30N 31°57' W 080°41'4 9.6
2018-Nov-02 07:04N 31°56' W 080°36'0 9.7
2018-Nov-02 07:01N 31°56' W 080°35'5 9.5
2018-Nov-02 06:30N 31°56' W 080°30'4 9.5
2018-Nov-02 06:03N 31°56' W 080°25'0 9.3
2018-Nov-02 06:00N 31°56' W 080°24'510.1
2018-Nov-02 05:29N 31°56' W 080°18'511.8
2018-Nov-02 05:03N 31°56' W 080°12'111.4
2018-Nov-02 04:59N 31°55' W 080°11'711.1
2018-Nov-02 04:20N 31°52' W 080°04'310.7
2018-Nov-02 04:02N 31°50' W 080°01'110.7
2018-Nov-02 03:58N 31°49' W 079°60'510.8
2018-Nov-02 03:30N 31°47' W 079°55'  

Dump ship's entire track history